Time;durP1;ratioP1;P1;durP2;ratioP2;P2;SDS_P1;SDS_P2;PMS_P1;PMS_P2;Temp;Humidity;BMP_temperature;BMP_pressure;BME280_temperature;BME280_humidity;BME280_pressure;Samples;Min_cycle;Max_cycle;Signal;HPM_P1;HPM_P2
2022/03/04 02:33:39;;;;;;;20.15;8.55;;;;;;;3.85;100.00;93929.78;6033422;23;20009;-84
2022/03/04 02:36:04;;;;;;;21.98;8.77;;;;;;;3.90;100.00;93932.50;4932384;23;20043;-84
2022/03/04 02:38:30;;;;;;;18.02;8.55;;;;;;;3.76;100.00;93932.78;4942105;29;20035;-85
2022/03/04 02:40:55;;;;;;;15.00;8.00;;;;;;;3.87;100.00;93931.16;4940569;29;20032;-84
2022/03/04 02:43:21;;;;;;;16.27;8.30;;;;;;;3.96;100.00;93934.13;4947336;29;20036;-85
2022/03/04 02:45:46;;;;;;;17.25;7.70;;;;;;;4.15;100.00;93939.06;4935181;29;20118;-85
2022/03/04 02:48:12;;;;;;;13.57;7.63;;;;;;;4.04;100.00;93938.13;4953552;29;20032;-84
2022/03/04 02:50:37;;;;;;;16.23;8.40;;;;;;;3.96;100.00;93931.53;4938616;29;20036;-85
2022/03/04 02:53:02;;;;;;;16.45;7.57;;;;;;;4.04;100.00;93936.34;4941792;29;20028;-85
2022/03/04 02:55:28;;;;;;;12.73;7.15;;;;;;;3.98;100.00;93937.25;4956515;29;20035;-84
2022/03/04 02:57:54;;;;;;;14.50;7.30;;;;;;;4.01;100.00;93939.38;4942043;29;20114;-85
2022/03/04 03:00:22;;;;;;;22.20;11.00;;;;;;;4.06;100.00;93944.66;4941348;29;20032;-85
2022/03/04 03:02:48;;;;;;;27.05;14.15;;;;;;;4.03;100.00;93942.53;4940654;29;20051;-85
2022/03/04 03:05:13;;;;;;;37.90;17.80;;;;;;;4.06;100.00;93944.66;4940714;29;20039;-85
2022/03/04 03:07:40;;;;;;;43.63;19.60;;;;;;;3.99;100.00;93940.66;4939204;29;20043;-84
2022/03/04 03:10:06;;;;;;;40.38;19.63;;;;;;;3.81;100.00;93947.66;4925750;29;20035;-85
2022/03/04 03:12:31;;;;;;;45.55;21.60;;;;;;;3.51;100.00;93946.09;4920422;29;20319;-85
2022/03/04 03:14:57;;;;;;;46.35;20.33;;;;;;;3.35;100.00;93942.47;4905750;29;20039;-84
2022/03/04 03:17:22;;;;;;;42.35;19.42;;;;;;;3.31;100.00;93957.66;4905787;29;20040;-85
2022/03/04 03:19:48;;;;;;;36.72;18.48;;;;;;;3.37;100.00;93955.97;4905311;29;20027;-84
2022/03/04 03:22:16;;;;;;;41.95;19.00;;;;;;;3.26;100.00;93960.19;4921430;29;20075;-85
2022/03/04 03:24:42;;;;;;;36.83;19.25;;;;;;;3.24;100.00;93959.63;4921334;29;20472;-84
2022/03/04 03:27:08;;;;;;;42.97;18.23;;;;;;;3.33;100.00;93960.81;4905379;29;20134;-84
2022/03/04 03:29:33;;;;;;;41.25;19.95;;;;;;;3.27;100.00;93956.56;4921441;29;20437;-85
2022/03/04 03:31:58;;;;;;;46.42;19.35;;;;;;;3.28;100.00;93970.28;4905007;29;20039;-84
2022/03/04 03:34:24;;;;;;;42.42;19.92;;;;;;;3.19;100.00;93977.63;4921130;29;20092;-84
2022/03/04 03:36:49;;;;;;;37.97;18.50;;;;;;;3.14;100.00;93978.31;4922372;29;20115;-84
2022/03/04 03:39:15;;;;;;;37.97;18.67;;;;;;;3.25;100.00;93990.44;4922275;29;20064;-84
2022/03/04 03:41:40;;;;;;;38.75;19.90;;;;;;;3.21;100.00;93988.53;4920453;29;20032;-84
2022/03/04 03:44:06;;;;;;;42.13;19.92;;;;;;;3.21;100.00;93991.94;4920990;29;20350;-84
2022/03/04 03:46:31;;;;;;;40.15;20.02;;;;;;;3.20;100.00;93998.13;4904898;29;20044;-84
2022/03/04 03:48:58;;;;;;;39.75;18.88;;;;;;;3.01;100.00;93999.28;4922095;29;20036;-84
2022/03/04 03:51:23;;;;;;;36.47;17.65;;;;;;;2.96;100.00;94000.75;4920247;29;20452;-84
2022/03/04 03:53:49;;;;;;;40.55;19.45;;;;;;;3.00;100.00;94010.66;4920916;29;20036;-84
2022/03/04 03:56:14;;;;;;;37.97;19.23;;;;;;;2.83;100.00;94014.75;4921573;29;20063;-84
2022/03/04 03:58:40;;;;;;;46.03;20.77;;;;;;;2.64;100.00;94021.03;4921662;29;20067;-84
2022/03/04 04:01:05;;;;;;;42.92;21.10;;;;;;;2.30;100.00;94020.81;4936062;29;20035;-84
2022/03/04 04:03:30;;;;;;;47.42;22.67;;;;;;;2.27;100.00;94016.88;4921787;29;20036;-84
2022/03/04 04:05:56;;;;;;;47.47;23.35;;;;;;;2.14;100.00;94023.03;4921713;29;20040;-84
2022/03/04 04:08:23;;;;;;;51.45;24.40;;;;;;;2.07;100.00;94023.16;4920242;29;20036;-84
2022/03/04 04:10:49;;;;;;;55.80;25.55;;;;;;;2.05;100.00;94022.59;4919907;29;20126;-84
2022/03/04 04:13:14;;;;;;;56.90;25.90;;;;;;;2.11;100.00;94019.09;4904760;29;20226;-84
2022/03/04 04:15:39;;;;;;;65.60;27.63;;;;;;;2.01;100.00;94021.47;4921631;29;20051;-84
2022/03/04 04:18:05;;;;;;;62.95;27.73;;;;;;;1.98;100.00;94029.63;4921523;29;20094;-84
2022/03/04 04:20:30;;;;;;;64.72;27.13;;;;;;;2.02;100.00;94025.63;4935370;29;20040;-84
2022/03/04 04:22:56;;;;;;;71.43;28.88;;;;;;;1.99;100.00;94031.19;4920014;29;20107;-84
2022/03/04 04:25:21;;;;;;;67.97;28.48;;;;;;;2.03;100.00;94027.19;4920075;29;20043;-84
2022/03/04 04:27:47;;;;;;;60.72;28.27;;;;;;;2.15;100.00;94028.97;4904548;29;20028;-84
2022/03/04 04:30:13;;;;;;;62.67;29.50;;;;;;;2.19;100.00;94030.13;4903784;29;20520;-84
2022/03/04 04:32:38;;;;;;;61.20;28.02;;;;;;;2.30;100.00;94020.81;4904625;29;20072;-84
2022/03/04 04:35:05;;;;;;;64.38;28.38;;;;;;;2.31;100.00;94022.38;4904365;29;20040;-84
2022/03/04 04:37:30;;;;;;;67.70;28.83;;;;;;;2.20;100.00;94024.72;4904556;29;20036;-84
2022/03/04 04:39:55;;;;;;;68.38;29.55;;;;;;;2.30;100.00;94021.63;4904119;29;20154;-84
2022/03/04 04:42:22;;;;;;;66.45;30.90;;;;;;;2.18;100.00;94018.22;4904244;29;20036;-84
2022/03/04 04:44:47;;;;;;;72.13;30.95;;;;;;;2.27;100.00;94019.44;4919814;29;20342;-84
2022/03/04 04:47:12;;;;;;;72.10;32.42;;;;;;;1.88;100.00;94019.06;4904380;29;20041;-85
2022/03/04 04:49:38;;;;;;;79.47;32.33;;;;;;;1.79;100.00;94016.78;4904037;29;20032;-84
2022/03/04 04:52:08;;;;;;;67.70;30.55;;;;;;;1.97;100.00;94017.72;4935665;29;20455;-84
2022/03/04 04:54:34;;;;;;;70.85;32.08;;;;;;;2.02;100.00;94019.66;4919924;29;20460;-84
2022/03/04 04:57:00;;;;;;;71.30;31.23;;;;;;;1.73;100.00;94027.22;4904183;29;20036;-84
2022/03/04 04:59:26;;;;;;;75.38;31.98;;;;;;;1.76;100.00;94019.00;4903646;29;20039;-84
2022/03/04 05:01:51;;;;;;;69.10;30.95;;;;;;;1.91;100.00;94028.94;4920493;29;20049;-84
2022/03/04 05:04:17;;;;;;;71.40;31.48;;;;;;;2.12;100.00;94025.84;4903787;29;20031;-84
2022/03/04 05:06:42;;;;;;;64.05;30.20;;;;;;;2.24;100.00;94032.81;4935361;29;20040;-84
2022/03/04 05:09:08;;;;;;;68.15;30.77;;;;;;;2.25;100.00;94031.81;4919588;29;20477;-84
2022/03/04 05:11:33;;;;;;;68.22;29.88;;;;;;;1.99;100.00;94031.19;4919241;29;20357;-84
2022/03/04 05:13:59;;;;;;;71.70;33.03;;;;;;;2.23;100.00;94042.41;4920741;29;20036;-84
2022/03/04 05:16:24;;;;;;;65.93;29.60;;;;;;;2.30;100.00;94039.72;4919799;29;20123;-84
2022/03/04 05:18:49;;;;;;;67.18;31.77;;;;;;;1.95;100.00;94040.41;4920339;29;20067;-84
2022/03/04 05:21:15;;;;;;;76.90;33.83;;;;;;;1.91;100.00;94044.47;4920453;29;20055;-85
2022/03/04 05:23:59;;;;;;;74.85;32.00;;;;;;;1.96;100.00;94047.16;4920511;29;20064;-85
2022/03/04 05:26:24;;;;;;;;;;;;;;;1.86;100.00;94047.69;4920779;29;20040;-85
2022/03/04 05:28:50;;;;;;;80.80;33.30;;;;;;;1.77;100.00;94047.22;4935196;29;19958;-84
2022/03/04 05:31:15;;;;;;;82.07;35.30;;;;;;;1.69;100.00;94040.56;4918793;29;20039;-84
2022/03/04 05:33:41;;;;;;;85.45;36.05;;;;;;;1.51;100.00;94041.38;4903474;29;20067;-84
2022/03/04 05:36:06;;;;;;;78.30;34.17;;;;;;;1.63;100.00;94032.91;4922527;29;20074;-83
2022/03/04 05:38:32;;;;;;;80.93;33.95;;;;;;;1.66;100.00;94038.44;4924468;29;20047;-83
2022/03/04 05:40:57;;;;;;;78.03;34.63;;;;;;;1.66;100.00;94024.72;4924020;29;20050;-83
2022/03/04 05:43:23;;;;;;;82.43;33.97;;;;;;;1.81;100.00;94019.94;4923178;29;20035;-83
2022/03/04 05:45:49;;;;;;;82.55;35.42;;;;;;;1.69;100.00;94014.75;4925133;29;20114;-83
2022/03/04 05:48:17;;;;;;;89.00;35.20;;;;;;;1.82;100.00;94025.91;4948166;29;20134;-83
2022/03/04 05:50:42;;;;;;;80.80;34.78;;;;;;;1.82;100.00;94018.16;4922160;29;20036;-83
2022/03/04 05:53:11;;;;;;;86.35;36.20;;;;;;;1.72;100.00;94020.47;4938773;29;20562;-83
2022/03/04 05:55:36;;;;;;;82.63;35.05;;;;;;;1.74;100.00;94018.44;4923003;29;20476;-83
2022/03/04 05:58:02;;;;;;;79.38;34.05;;;;;;;1.83;100.00;94017.13;4922687;29;20043;-83
2022/03/04 06:00:28;;;;;;;78.03;33.80;;;;;;;1.94;100.00;94025.91;4938613;29;20421;-84
2022/03/04 06:02:53;;;;;;;76.00;32.38;;;;;;;1.96;100.00;94022.13;4924302;29;20035;-83
2022/03/04 06:05:21;;;;;;;73.57;33.65;;;;;;;1.74;100.00;94018.44;4941017;29;20042;-83
2022/03/04 06:07:47;;;;;;;81.35;35.05;;;;;;;1.51;100.00;94023.31;4957393;29;20038;-83
2022/03/04 06:10:12;;;;;;;85.80;36.58;;;;;;;1.43;100.00;94015.09;4956989;29;20130;-83
2022/03/04 06:12:38;;;;;;;87.05;37.00;;;;;;;1.48;100.00;94028.91;4957310;29;20348;-83
2022/03/04 06:15:04;;;;;;;86.95;36.67;;;;;;;1.60;100.00;94023.03;4957351;29;20360;-83
2022/03/04 06:17:30;;;;;;;86.45;36.50;;;;;;;1.70;100.00;94036.19;4925655;29;20071;-82
2022/03/04 06:19:55;;;;;;;84.28;35.13;;;;;;;1.93;100.00;94030.28;4941179;29;20455;-83
2022/03/04 06:22:21;;;;;;;85.28;33.97;;;;;;;2.02;100.00;94032.56;4942470;29;20038;-82
2022/03/04 06:24:47;;;;;;;76.93;33.03;;;;;;;2.14;100.00;94027.41;4941302;29;20444;-83
2022/03/04 06:27:12;;;;;;;77.80;33.42;;;;;;;2.07;100.00;94027.50;4941497;29;20043;-83
2022/03/04 06:29:38;;;;;;;76.22;32.72;;;;;;;2.07;100.00;94032.69;4941022;29;20063;-83
2022/03/04 06:32:04;;;;;;;76.93;32.78;;;;;;;2.11;100.00;94033.84;4939466;29;20099;-83
2022/03/04 06:34:29;;;;;;;72.22;32.47;;;;;;;2.14;100.00;94030.78;4925385;29;20031;-83
2022/03/04 06:36:54;;;;;;;73.72;33.28;;;;;;;2.17;100.00;94039.91;4941020;29;20071;-83
2022/03/04 06:39:20;;;;;;;72.88;33.13;;;;;;;1.87;100.00;94043.31;4941314;29;20040;-83
2022/03/04 06:41:45;;;;;;;70.93;33.15;;;;;;;2.05;100.00;94045.03;4941791;29;20040;-83
2022/03/04 06:44:11;;;;;;;75.97;34.30;;;;;;;1.80;100.00;94038.25;4925098;29;20027;-83
2022/03/04 06:46:36;;;;;;;77.85;32.47;;;;;;;1.89;100.00;94036.91;4940862;29;20035;-83
2022/03/04 06:49:02;;;;;;;78.30;33.53;;;;;;;1.82;100.00;94034.41;4940898;29;20095;-83
2022/03/04 06:51:28;;;;;;;65.28;30.55;;;;;;;1.87;100.00;94035.56;4940631;29;20031;-83
2022/03/04 06:53:53;;;;;;;70.72;30.77;;;;;;;1.92;100.00;94040.84;4940957;29;20043;-83
2022/03/04 06:56:19;;;;;;;67.45;30.20;;;;;;;2.05;100.00;94045.84;4925300;29;20036;-83
2022/03/04 06:58:45;;;;;;;79.82;31.67;;;;;;;2.00;100.00;94040.53;4940890;29;20039;-83
2022/03/04 07:01:10;;;;;;;70.30;32.35;;;;;;;2.18;100.00;94038.91;4940128;29;20059;-83
2022/03/04 07:03:36;;;;;;;67.70;31.10;;;;;;;2.23;100.00;94037.22;4940568;29;20036;-83
2022/03/04 07:06:02;;;;;;;72.85;31.70;;;;;;;2.29;100.00;94037.34;4924410;29;20045;-83
2022/03/04 07:08:28;;;;;;;70.03;32.88;;;;;;;2.11;100.00;94042.34;4940318;29;20036;-83
2022/03/04 07:10:53;;;;;;;87.72;34.35;;;;;;;2.04;100.00;94043.47;4940151;29;20087;-83
2022/03/04 07:13:21;;;;;;;73.75;32.08;;;;;;;2.23;100.00;94046.75;4940584;29;20032;-83
2022/03/04 07:15:47;;;;;;;71.10;33.55;;;;;;;2.44;100.00;94055.00;4940600;29;20500;-83
2022/03/04 07:18:13;;;;;;;81.57;35.97;;;;;;;2.20;100.00;94052.38;4940324;29;20028;-83
2022/03/04 07:20:40;;;;;;;80.68;35.45;;;;;;;2.29;100.00;94053.63;4941181;29;20452;-83
2022/03/04 07:23:06;;;;;;;74.15;34.08;;;;;;;2.51;100.00;94058.28;4940338;29;20031;-83
2022/03/04 07:25:31;;;;;;;77.50;34.30;;;;;;;2.48;100.00;94050.97;4940213;29;20361;-83
2022/03/04 07:27:57;;;;;;;78.07;34.13;;;;;;;2.58;100.00;94051.16;4940306;29;20032;-83
2022/03/04 07:30:22;;;;;;;80.30;34.60;;;;;;;2.86;100.00;94051.53;4939673;29;20042;-83
2022/03/04 07:32:49;;;;;;;68.38;31.05;;;;;;;3.03;100.00;94059.41;4924162;29;20039;-83
2022/03/04 07:35:14;;;;;;;75.82;33.85;;;;;;;3.02;100.00;94053.41;4940132;29;20054;-83
2022/03/04 07:37:42;;;;;;;77.68;34.45;;;;;;;3.00;100.00;94055.44;4940204;29;20035;-83
2022/03/04 07:40:10;;;;;;;65.38;31.42;;;;;;;2.83;100.00;94055.34;4939763;29;20065;-83
2022/03/04 07:42:35;;;;;;;73.05;32.92;;;;;;;2.73;100.00;94057.72;4939865;29;20126;-83
2022/03/04 07:45:01;;;;;;;71.43;31.95;;;;;;;2.75;100.00;94061.66;4923788;29;20508;-83
2022/03/04 07:47:26;;;;;;;72.10;33.05;;;;;;;2.80;100.00;94066.94;4924041;29;20187;-83
2022/03/04 07:49:52;;;;;;;70.80;32.97;;;;;;;2.89;100.00;94067.41;4940399;29;20058;-83
2022/03/04 07:52:17;;;;;;;67.40;31.85;;;;;;;3.05;100.00;94068.50;4939979;29;20119;-83
2022/03/04 07:54:43;;;;;;;68.30;29.33;;;;;;;3.06;100.00;94071.88;4940170;29;20027;-83
2022/03/04 07:57:09;;;;;;;69.55;31.10;;;;;;;3.17;100.00;94070.28;4939000;29;20031;-83
2022/03/04 07:59:35;;;;;;;66.35;30.95;;;;;;;3.27;100.00;94080.06;4939377;29;20040;-83
2022/03/04 08:02:00;;;;;;;65.78;31.30;;;;;;;3.52;100.00;94077.19;4939372;29;20116;-83
2022/03/04 08:04:26;;;;;;;67.43;31.70;;;;;;;3.37;100.00;94083.66;4939223;29;20032;-84
2022/03/04 08:06:51;;;;;;;62.28;30.30;;;;;;;3.65;100.00;94076.91;4939462;29;20045;-84
2022/03/04 08:09:17;;;;;;;66.43;31.30;;;;;;;3.86;100.00;94082.50;4955630;29;20055;-84
2022/03/04 08:11:44;;;;;;;63.05;30.27;;;;;;;4.10;100.00;94085.75;4954787;29;20074;-84
2022/03/04 08:14:10;;;;;;;66.93;30.38;;;;;;;4.16;100.00;94083.25;4939303;29;20099;-84
2022/03/04 08:16:35;;;;;;;73.47;32.40;;;;;;;4.70;100.00;94072.44;4955123;29;20035;-84
2022/03/04 08:19:03;;;;;;;61.08;30.25;;;;;;;4.52;100.00;94082.03;4955376;29;20031;-83
2022/03/04 08:21:29;;;;;;;61.78;29.15;;;;;;;4.62;100.00;94085.78;4938583;29;20078;-84
2022/03/04 08:23:54;;;;;;;53.95;27.02;;;;;;;4.54;100.00;94086.97;4955009;29;20078;-84
2022/03/04 08:26:20;;;;;;;55.33;26.30;;;;;;;4.85;100.00;94084.06;4955005;29;20083;-84
2022/03/04 08:28:46;;;;;;;65.85;29.20;;;;;;;5.22;100.00;94097.31;4955302;29;20042;-84
2022/03/04 08:31:11;;;;;;;56.35;27.75;;;;;;;5.75;100.00;94086.50;4954468;29;20046;-84
2022/03/04 08:33:38;;;;;;;65.13;29.88;;;;;;;6.28;100.00;94093.03;4954814;29;20448;-84
2022/03/04 08:36:05;;;;;;;56.83;26.35;;;;;;;6.55;100.00;94100.81;4940524;29;20062;-84
2022/03/04 08:38:30;;;;;;;61.38;29.35;;;;;;;6.86;100.00;94092.44;4939996;29;20499;-84
2022/03/04 08:40:56;;;;;;;60.22;29.08;;;;;;;6.63;100.00;94095.16;4954621;29;20031;-84
2022/03/04 08:43:21;;;;;;;55.42;28.92;;;;;;;6.59;100.00;94094.06;4938616;29;20035;-84
2022/03/04 08:45:47;;;;;;;59.50;30.20;;;;;;;6.69;100.00;94093.38;4939930;29;20059;-84
2022/03/04 08:48:12;;;;;;;55.60;28.08;;;;;;;6.72;100.00;94089.47;4954551;29;20032;-84
2022/03/04 08:50:38;;;;;;;60.03;28.85;;;;;;;6.53;100.00;94096.88;4922591;29;20034;-84
2022/03/04 08:53:03;;;;;;;53.75;27.92;;;;;;;6.32;100.00;94089.69;4938771;29;20037;-84
2022/03/04 08:55:30;;;;;;;58.17;28.60;;;;;;;6.11;100.00;94093.13;4954443;29;20459;-84
2022/03/04 08:57:57;;;;;;;63.13;30.35;;;;;;;6.12;100.00;94095.50;4938616;29;20064;-84
2022/03/04 09:00:23;;;;;;;63.22;31.23;;;;;;;6.55;100.00;94095.59;4938528;29;20031;-84
2022/03/04 09:02:48;;;;;;;62.33;28.75;;;;;;;6.58;100.00;94095.09;4954293;29;20024;-84
2022/03/04 09:05:14;;;;;;;57.42;28.65;;;;;;;6.37;100.00;94091.53;4939521;29;20031;-83
2022/03/04 09:07:39;;;;;;;63.35;30.83;;;;;;;6.57;100.00;94087.56;4954806;29;20114;-84
2022/03/04 09:10:05;;;;;;;66.78;31.52;;;;;;;6.45;100.00;94090.31;4937203;29;20039;-83
2022/03/04 09:12:31;;;;;;;56.78;28.38;;;;;;;6.61;100.00;94084.22;4954773;29;20039;-84
2022/03/04 09:14:57;;;;;;;64.40;31.23;;;;;;;6.74;100.00;94090.81;4954223;29;20024;-84
2022/03/04 09:17:23;;;;;;;62.00;30.25;;;;;;;6.51;100.00;94087.50;4938030;29;20050;-84
2022/03/04 09:19:48;;;;;;;67.95;33.30;;;;;;;5.91;100.00;94097.06;4953803;29;20502;-84
2022/03/04 09:22:14;;;;;;;72.55;32.80;;;;;;;6.15;100.00;94095.00;4954147;29;20326;-84
2022/03/04 09:24:39;;;;;;;64.30;32.83;;;;;;;6.21;100.00;94091.41;4954049;29;20035;-85
2022/03/04 09:27:06;;;;;;;70.47;33.17;;;;;;;6.26;100.00;94098.47;4954400;29;20110;-84
2022/03/04 09:29:32;;;;;;;66.47;32.25;;;;;;;5.80;100.00;94103.94;4954081;29;20035;-84
2022/03/04 09:31:58;;;;;;;73.30;32.13;;;;;;;5.55;100.00;94099.25;4953870;29;20393;-84
2022/03/04 09:34:24;;;;;;;71.50;32.20;;;;;;;5.28;100.00;94090.38;4937838;29;20067;-84
2022/03/04 09:36:49;;;;;;;66.90;32.78;;;;;;;5.16;100.00;94097.47;4939249;29;20027;-84
2022/03/04 09:39:15;;;;;;;66.45;30.35;;;;;;;4.97;100.00;94094.34;4938577;29;20031;-85
2022/03/04 09:41:40;;;;;;;65.65;32.15;;;;;;;5.29;100.00;94101.53;4937786;29;20035;-85
2022/03/04 09:44:07;;;;;;;65.88;32.00;;;;;;;5.26;100.00;94091.63;4938264;29;20039;-85
2022/03/04 09:46:33;;;;;;;67.63;32.78;;;;;;;5.04;100.00;94097.59;4953928;29;20042;-85
2022/03/04 09:49:16;;;;;;;71.05;32.30;;;;;;;4.70;100.00;94093.19;4938164;29;20039;-85
2022/03/04 09:51:41;;;;;;;67.30;31.45;;;;;;;4.83;100.00;94097.28;4938108;29;20422;-85
2022/03/04 09:54:07;;;;;;;57.58;28.63;;;;;;;4.73;100.00;94094.53;4939618;29;20079;-85
2022/03/04 09:56:32;;;;;;;66.05;30.25;;;;;;;4.58;100.00;94098.44;4937848;29;20042;-84
2022/03/04 09:58:58;;;;;;;62.22;29.75;;;;;;;4.39;100.00;94093.50;4953955;29;20028;-84
2022/03/04 10:01:23;;;;;;;64.47;30.20;;;;;;;4.29;100.00;94095.91;4938892;29;20062;-84
2022/03/04 10:03:52;;;;;;;69.82;31.05;;;;;;;4.47;100.00;94089.72;4939236;29;20039;-84
2022/03/04 10:06:19;;;;;;;64.07;31.25;;;;;;;4.34;100.00;94092.63;4938011;29;20035;-84
2022/03/04 10:08:46;;;;;;;71.10;31.83;;;;;;;4.36;100.00;94088.78;4953844;29;20110;-84
2022/03/04 10:11:13;;;;;;;66.20;32.38;;;;;;;4.45;100.00;94089.19;4937574;29;20042;-84
2022/03/04 10:13:51;;;;;;;70.00;32.20;;;;;;;4.50;100.00;94093.66;4954050;29;20063;-84
2022/03/04 10:16:26;;;;;;;63.05;29.75;;;;;;;4.61;100.00;94094.59;4938003;29;20035;-84
2022/03/04 10:19:20;;;;;;;59.95;29.58;;;;;;;4.61;100.00;94092.81;4937828;29;20031;-84
2022/03/04 10:21:54;;;;;;;62.65;28.98;;;;;;;4.69;100.00;94096.03;4924087;29;20028;-84
2022/03/04 10:24:24;;;;;;;62.22;29.75;;;;;;;4.56;100.00;94091.94;4957137;29;20034;-84
2022/03/04 10:27:02;;;;;;;68.57;31.45;;;;;;;4.64;100.00;94091.53;4957468;29;20032;-84
2022/03/04 10:29:30;;;;;;;63.17;30.55;;;;;;;4.45;100.00;94091.00;4957111;29;20023;-84
2022/03/04 10:32:10;;;;;;;63.70;29.77;;;;;;;4.68;100.00;94097.84;4956961;29;20341;-84
2022/03/04 10:34:56;;;;;;;69.30;31.80;;;;;;;5.22;100.00;94093.91;4940893;29;20030;-84
2022/03/04 10:37:51;;;;;;;63.13;29.02;;;;;;;5.23;100.00;94090.28;4957346;29;20036;-84
2022/03/04 10:40:29;;;;;;;60.28;29.92;;;;;;;5.49;100.00;94091.41;4956201;29;20346;-84
2022/03/04 10:42:59;;;;;;;62.58;30.30;;;;;;;5.84;100.00;94086.06;4941154;29;20473;-85
2022/03/04 10:45:30;;;;;;;59.33;29.60;;;;;;;5.98;100.00;94095.06;4957125;29;20051;-85
2022/03/04 10:47:59;;;;;;;56.35;27.90;;;;;;;6.26;100.00;94090.66;4940963;29;20032;-84
2022/03/04 10:50:32;;;;;;;61.03;28.88;;;;;;;6.02;100.00;94090.94;4940587;29;20496;-84
2022/03/04 10:52:59;;;;;;;65.18;29.63;;;;;;;6.23;100.00;94086.72;4939824;29;20038;-84
2022/03/04 10:55:36;;;;;;;63.72;30.20;;;;;;;6.05;100.00;94089.69;4942150;29;20043;-84
2022/03/04 10:58:04;;;;;;;58.35;29.23;;;;;;;6.17;100.00;94084.31;4941054;29;20028;-84
2022/03/04 11:00:33;;;;;;;62.75;29.77;;;;;;;6.14;100.00;94077.81;4941289;29;20516;-84
2022/03/04 11:02:59;;;;;;;59.33;29.65;;;;;;;6.07;100.00;94075.41;4940426;29;20032;-84
2022/03/04 11:05:25;;;;;;;61.90;30.98;;;;;;;5.69;100.00;94071.09;4940582;29;20039;-84
2022/03/04 11:07:51;;;;;;;69.10;32.30;;;;;;;5.46;100.00;94072.91;4921584;29;20043;-84
2022/03/04 11:10:18;;;;;;;60.90;29.85;;;;;;;5.41;100.00;94071.03;4942558;29;20032;-84
2022/03/04 11:12:45;;;;;;;58.78;30.33;;;;;;;5.31;100.00;94079.50;4956391;29;20027;-84
2022/03/04 11:15:11;;;;;;;60.90;30.00;;;;;;;5.75;100.00;94067.50;4937034;29;20067;-85
2022/03/04 11:17:38;;;;;;;62.42;31.02;;;;;;;5.79;100.00;94059.00;4953032;29;20028;-84
2022/03/04 11:20:07;;;;;;;71.28;32.40;;;;;;;6.33;100.00;94062.66;4921402;29;20398;-84
2022/03/04 11:22:33;;;;;;;62.95;30.20;;;;;;;6.47;100.00;94057.03;4953224;29;20028;-84
2022/03/04 11:25:06;;;;;;;64.25;31.70;;;;;;;6.49;100.00;94060.94;4953247;29;20032;-84
2022/03/04 11:27:47;;;;;;;63.55;30.98;;;;;;;6.03;100.00;94063.16;4921636;29;20036;-84
2022/03/04 11:30:34;;;;;;;61.95;30.45;;;;;;;5.92;100.00;94055.22;4936709;29;20024;-84
2022/03/04 11:33:18;;;;;;;58.00;28.27;;;;;;;6.15;100.00;94062.97;4936481;29;20083;-84
2022/03/04 11:35:55;;;;;;;62.92;30.10;;;;;;;6.47;100.00;94054.44;4936554;29;20032;-84
2022/03/04 11:38:46;;;;;;;59.55;28.85;;;;;;;6.49;100.00;94055.72;4922390;29;20076;-84
2022/03/04 11:41:17;;;;;;;56.92;28.75;;;;;;;6.69;100.00;94043.13;4954373;29;20042;-85
2022/03/04 11:43:48;;;;;;;61.58;30.08;;;;;;;7.38;100.00;94053.63;4924164;29;20039;-84
2022/03/04 11:46:21;;;;;;;58.47;29.95;;;;;;;7.81;100.00;94045.72;4940305;29;20148;-84
2022/03/04 11:48:47;;;;;;;61.92;28.77;;;;;;;8.43;100.00;94037.97;4939594;29;20027;-84
2022/03/04 11:51:21;;;;;;;51.28;27.20;;;;;;;8.44;90.38;94042.13;4939635;29;20034;-84
2022/03/04 11:54:23;;;;;;;50.28;26.40;;;;;;;8.72;92.28;94032.22;4939886;29;20359;-84
2022/03/04 11:56:52;;;;;;;51.60;26.50;;;;;;;7.45;100.00;94036.72;4940379;29;20349;-84
2022/03/04 11:59:19;;;;;;;49.78;25.77;;;;;;;7.01;95.84;94039.66;4939847;29;20437;-84
2022/03/04 12:01:45;;;;;;;52.67;26.27;;;;;;;6.67;100.00;94029.56;4940198;29;20023;-84
2022/03/04 12:04:15;;;;;;;53.55;27.17;;;;;;;6.79;100.00;94041.34;4940519;29;20491;-84
2022/03/04 12:06:42;;;;;;;54.47;26.05;;;;;;;7.02;100.00;94036.00;4940641;29;20119;-84
2022/03/04 12:09:27;;;;;;;46.15;23.17;;;;;;;6.91;91.47;94032.56;4939324;29;20071;-84
2022/03/04 12:12:18;;;;;;;45.78;21.83;;;;;;;7.28;100.00;94034.34;4939997;29;20075;-84
2022/03/04 12:15:18;;;;;;;44.30;23.40;;;;;;;7.28;88.18;94018.69;4939244;29;20115;-84
2022/03/04 12:18:02;;;;;;;46.85;22.35;;;;;;;7.60;89.63;94016.97;4940279;29;20102;-84
2022/03/04 12:20:27;;;;;;;;;;;;;;;7.45;94.19;94020.31;4939181;29;20087;-84
2022/03/04 12:22:57;;;;;;;44.95;22.50;;;;;;;7.50;84.97;94015.91;4940530;29;19911;-84
2022/03/04 12:25:41;;;;;;;48.13;24.08;;;;;;;7.20;83.25;94011.34;4939399;29;20035;-84
2022/03/04 12:28:15;;;;;;;53.90;26.38;;;;;;;7.08;92.36;94008.97;4923127;29;20035;-84
2022/03/04 12:30:41;;;;;;;50.72;25.83;;;;;;;7.42;86.01;94010.41;4938909;29;20067;-84
2022/03/04 12:33:07;;;;;;;47.50;23.73;;;;;;;7.06;80.37;93995.41;4955186;29;20070;-84
2022/03/04 12:35:33;;;;;;;45.97;22.73;;;;;;;7.01;83.88;93995.38;4939169;29;20044;-84
2022/03/04 12:38:01;;;;;;;50.75;24.27;;;;;;;6.85;87.46;93991.94;4955085;29;20046;-84
2022/03/04 12:40:27;;;;;;;47.22;23.60;;;;;;;6.93;89.50;93994.84;4938840;29;20031;-85
2022/03/04 12:42:54;;;;;;;53.83;26.95;;;;;;;6.50;97.93;94002.63;4940406;29;20441;-84
2022/03/04 12:45:20;;;;;;;57.80;27.60;;;;;;;6.23;97.06;93989.72;4938884;29;20126;-84
2022/03/04 12:47:46;;;;;;;56.78;27.60;;;;;;;6.16;100.00;93996.91;4938651;29;20119;-84
2022/03/04 12:50:12;;;;;;;56.80;28.23;;;;;;;6.09;100.00;93997.13;4938525;29;20141;-84
2022/03/04 12:52:37;;;;;;;51.55;26.08;;;;;;;6.41;100.00;93996.34;4938903;29;20032;-85
2022/03/04 12:55:08;;;;;;;51.70;25.50;;;;;;;6.72;100.00;93993.94;4939766;29;20019;-85
2022/03/04 12:57:39;;;;;;;53.55;25.42;;;;;;;6.65;96.50;93993.34;4938631;29;20035;-85
2022/03/04 13:00:05;;;;;;;45.17;24.52;;;;;;;6.86;92.84;93994.25;4938483;29;20035;-85
2022/03/04 13:02:35;;;;;;;46.47;22.67;;;;;;;7.22;82.09;93998.84;4938432;29;20107;-85
2022/03/04 13:05:02;;;;;;;41.08;21.73;;;;;;;7.80;89.79;93978.94;4938697;29;20118;-85
2022/03/04 13:07:28;;;;;;;48.28;23.48;;;;;;;7.70;84.44;93983.09;4938574;29;20070;-85
2022/03/04 13:09:55;;;;;;;52.03;24.77;;;;;;;8.18;75.84;93979.50;4937821;29;20032;-85
2022/03/04 13:12:21;;;;;;;54.05;27.55;;;;;;;8.46;78.55;93982.59;4939579;29;20042;-84
2022/03/04 13:14:47;;;;;;;53.60;29.13;;;;;;;7.35;96.80;93980.13;4938378;29;20031;-84
2022/03/04 13:17:13;;;;;;;65.38;32.33;;;;;;;7.01;93.35;93983.16;4938139;29;20118;-84
2022/03/04 13:19:40;;;;;;;68.32;33.13;;;;;;;7.03;97.07;93982.88;4937761;29;20028;-84
2022/03/04 13:22:11;;;;;;;58.00;28.38;;;;;;;6.68;100.00;93984.28;4954380;29;20027;-84
2022/03/04 13:24:41;;;;;;;63.22;29.75;;;;;;;6.89;100.00;93985.97;4938310;29;20034;-84
2022/03/04 13:27:16;;;;;;;56.60;28.65;;;;;;;7.09;92.86;93981.88;4922735;29;20062;-84
2022/03/04 13:29:43;;;;;;;54.47;27.92;;;;;;;7.00;99.53;93975.56;4938063;29;20036;-84
2022/03/04 13:32:12;;;;;;;54.78;28.42;;;;;;;7.85;100.00;93976.34;4938618;29;20032;-84
2022/03/04 13:34:39;;;;;;;55.25;28.50;;;;;;;7.82;83.49;93976.88;4922424;29;20031;-85
2022/03/04 13:37:10;;;;;;;54.15;27.55;;;;;;;7.98;82.19;93967.25;4938638;29;20422;-84
2022/03/04 13:39:38;;;;;;;46.47;24.75;;;;;;;8.41;71.73;93969.56;4938601;29;20035;-85
2022/03/04 13:42:14;;;;;;;55.03;28.73;;;;;;;8.53;76.67;93967.50;4937924;29;20063;-85
2022/03/04 13:44:52;;;;;;;61.28;28.30;;;;;;;8.32;79.18;93972.72;4938194;29;20428;-85
2022/03/04 13:47:36;;;;;;;53.58;25.60;;;;;;;9.16;77.90;93968.13;4938293;29;20039;-85
2022/03/04 13:50:09;;;;;;;55.15;27.65;;;;;;;8.87;85.62;93972.13;4937127;29;20044;-84
2022/03/04 13:52:59;;;;;;;54.70;26.67;;;;;;;8.59;79.51;93974.25;4938128;29;20043;-84
2022/03/04 13:55:47;;;;;;;47.83;24.63;;;;;;;7.57;77.19;93967.94;4938735;29;20047;-84